Time;durP1;ratioP1;P1;durP2;ratioP2;P2;SDS_P1;SDS_P2;PMS_P1;PMS_P2;Temp;Humidity;BMP_temperature;BMP_pressure;BME280_temperature;BME280_humidity;BME280_pressure;Samples;Min_cycle;Max_cycle;Signal;HPM_P1;HPM_P2
2023/06/13 00:00:09;;;;;;;27.90;24.90;;;17.70;99.90;;;;;;5053429;28;20056;-53
2023/06/13 00:02:37;;;;;;;26.85;23.95;;;17.60;99.90;;;;;;5054152;28;20045;-51
2023/06/13 00:05:04;;;;;;;26.48;23.77;;;17.50;99.90;;;;;;5053851;28;20140;-52
2023/06/13 00:07:32;;;;;;;25.95;23.27;;;17.50;99.90;;;;;;5053843;28;20045;-47
2023/06/13 00:09:59;;;;;;;30.90;24.58;;;17.40;99.90;;;;;;5053716;28;20041;-47
2023/06/13 00:12:26;;;;;;;27.98;24.98;;;17.30;99.90;;;;;;5053506;28;20041;-51
2023/06/13 00:14:53;;;;;;;28.77;24.73;;;17.30;99.90;;;;;;5053497;28;20044;-52
2023/06/13 00:17:22;;;;;;;27.50;24.63;;;17.20;99.90;;;;;;5053861;28;20037;-54
2023/06/13 00:19:49;;;;;;;27.55;24.55;;;17.20;99.90;;;;;;5051990;28;20048;-53
2023/06/13 00:22:16;;;;;;;28.63;24.33;;;17.10;99.90;;;;;;5053641;28;20052;-51
2023/06/13 00:24:43;;;;;;;27.70;24.70;;;17.10;99.90;;;;;;5053564;28;20094;-48
2023/06/13 00:27:10;;;;;;;27.17;24.08;;;17.10;99.90;;;;;;5053712;28;20041;-48
2023/06/13 00:29:37;;;;;;;31.73;25.45;;;17.10;99.90;;;;;;5052057;28;20048;-51
2023/06/13 00:32:04;;;;;;;29.58;24.70;;;17.10;99.90;;;;;;5052905;28;20427;-49
2023/06/13 00:34:31;;;;;;;28.23;25.33;;;16.90;99.90;;;;;;5053526;28;20385;-49
2023/06/13 00:36:58;;;;;;;25.90;23.50;;;16.90;99.90;;;;;;5053484;28;20045;-51
2023/06/13 00:39:25;;;;;;;27.25;24.45;;;16.80;99.90;;;;;;5053327;28;20095;-47
2023/06/13 00:41:51;;;;;;;28.17;25.23;;;16.70;99.90;;;;;;5052963;28;20047;-50
2023/06/13 00:44:18;;;;;;;27.38;24.05;;;16.70;99.90;;;;;;5052302;28;20053;-49
2023/06/13 00:46:45;;;;;;;27.48;24.60;;;16.70;99.90;;;;;;5052170;28;20429;-49
2023/06/13 00:49:13;;;;;;;27.10;24.33;;;16.70;99.90;;;;;;5053412;28;20427;-48
2023/06/13 00:51:40;;;;;;;30.15;24.85;;;16.70;99.90;;;;;;5053098;28;20079;-48
2023/06/13 00:54:07;;;;;;;27.27;24.40;;;16.60;99.90;;;;;;5051869;28;20072;-51
2023/06/13 00:56:34;;;;;;;25.98;23.38;;;16.60;99.90;;;;;;5052058;28;20037;-49
2023/06/13 00:59:02;;;;;;;29.60;24.67;;;16.60;99.90;;;;;;5053085;28;20049;-51
2023/06/13 01:01:30;;;;;;;27.13;24.23;;;16.50;99.90;;;;;;5051846;28;20052;-50
2023/06/13 01:03:59;;;;;;;28.77;25.67;;;16.50;99.90;;;;;;5053404;28;20053;-50
2023/06/13 01:06:28;;;;;;;26.08;23.48;;;16.60;99.90;;;;;;5051965;28;20495;-52
2023/06/13 01:08:58;;;;;;;25.77;23.13;;;16.60;99.90;;;;;;5046674;28;20047;-49
2023/06/13 01:11:26;;;;;;;27.88;23.92;;;16.50;99.90;;;;;;5051688;28;20037;-48
2023/06/13 01:13:53;;;;;;;26.60;23.40;;;16.50;99.90;;;;;;5056586;28;20048;-50
2023/06/13 01:16:23;;;;;;;27.45;24.58;;;16.50;99.90;;;;;;5055833;28;20127;-54
2023/06/13 01:18:51;;;;;;;25.48;22.80;;;16.50;99.90;;;;;;5055908;28;20041;-51
2023/06/13 01:21:18;;;;;;;25.23;22.13;;;16.40;99.90;;;;;;5056897;28;20048;-49
2023/06/13 01:23:45;;;;;;;25.92;23.30;;;16.30;99.90;;;;;;5055624;28;20045;-48
2023/06/13 01:26:13;;;;;;;26.60;22.25;;;16.30;99.90;;;;;;5055782;28;20479;-51
2023/06/13 01:28:40;;;;;;;24.83;22.33;;;16.30;99.90;;;;;;5054792;28;20045;-49
2023/06/13 01:31:06;;;;;;;24.02;21.42;;;16.30;99.90;;;;;;5056790;28;20049;-49
2023/06/13 01:33:33;;;;;;;26.73;22.88;;;16.20;99.90;;;;;;5055394;28;20179;-53
2023/06/13 01:36:00;;;;;;;24.27;21.73;;;16.20;99.90;;;;;;5056577;28;20419;-51
2023/06/13 01:38:27;;;;;;;24.67;22.05;;;16.20;99.90;;;;;;5056842;28;20041;-50
2023/06/13 01:40:53;;;;;;;28.27;22.33;;;16.10;99.90;;;;;;5056509;28;20052;-50
2023/06/13 01:43:20;;;;;;;27.55;23.55;;;16.10;99.90;;;;;;5055400;28;20106;-51
2023/06/13 01:45:48;;;;;;;28.58;21.77;;;16.10;99.90;;;;;;5055390;28;20041;-51
2023/06/13 01:48:16;;;;;;;24.75;22.13;;;16.00;99.90;;;;;;5056442;28;20045;-50
2023/06/13 01:50:43;;;;;;;25.85;21.90;;;16.00;99.90;;;;;;5055251;28;20056;-52
2023/06/13 01:53:10;;;;;;;24.55;21.98;;;16.00;99.90;;;;;;5056221;28;20040;-49
2023/06/13 01:55:37;;;;;;;24.27;21.83;;;16.00;99.90;;;;;;5056548;28;20032;-47
2023/06/13 01:58:04;;;;;;;23.80;21.30;;;16.00;99.90;;;;;;5055827;28;20099;-46
2023/06/13 02:00:31;;;;;;;24.48;21.00;;;15.90;99.90;;;;;;5056133;28;20045;-51
2023/06/13 02:02:58;;;;;;;22.35;20.15;;;15.90;99.90;;;;;;5056163;28;20127;-49
2023/06/13 02:05:25;;;;;;;22.80;20.50;;;15.80;99.90;;;;;;5056195;28;20435;-50
2023/06/13 02:07:53;;;;;;;23.90;19.88;;;15.70;99.90;;;;;;5056429;28;20067;-50
2023/06/13 02:10:20;;;;;;;21.73;19.52;;;15.70;99.90;;;;;;5049564;28;20045;-52
2023/06/13 02:12:47;;;;;;;20.45;18.33;;;15.70;99.90;;;;;;5056024;28;20549;-52
2023/06/13 02:15:13;;;;;;;23.58;20.40;;;15.60;99.90;;;;;;5049466;28;20045;-52
2023/06/13 02:17:40;;;;;;;21.13;18.83;;;15.60;99.90;;;;;;5034749;28;20100;-53
2023/06/13 02:20:07;;;;;;;21.77;19.48;;;15.60;99.90;;;;;;5054429;28;20036;-53
2023/06/13 02:22:34;;;;;;;21.52;19.40;;;15.60;99.90;;;;;;5055527;28;20091;-50
2023/06/13 02:25:03;;;;;;;22.38;20.13;;;15.60;99.90;;;;;;5054037;28;20381;-54
2023/06/13 02:27:29;;;;;;;21.35;19.15;;;15.60;99.90;;;;;;5061232;28;20068;-51
2023/06/13 02:29:56;;;;;;;20.63;18.63;;;15.60;99.90;;;;;;5053505;28;20045;-53
2023/06/13 02:32:24;;;;;;;21.65;19.58;;;15.50;99.90;;;;;;5050582;28;20060;-50
2023/06/13 02:34:51;;;;;;;21.15;18.40;;;15.50;99.90;;;;;;5049030;28;20048;-50
2023/06/13 02:37:20;;;;;;;21.40;18.63;;;15.50;99.90;;;;;;5047579;28;20123;-47
2023/06/13 02:39:48;;;;;;;23.55;18.00;;;15.40;99.90;;;;;;5054254;28;20037;-52
2023/06/13 02:42:15;;;;;;;19.73;17.70;;;15.30;99.90;;;;;;5055482;28;20051;-46
2023/06/13 02:44:42;;;;;;;19.13;17.13;;;15.30;99.90;;;;;;5055207;28;20048;-53
2023/06/13 02:47:09;;;;;;;18.27;16.38;;;15.30;99.90;;;;;;5054034;28;20091;-52
2023/06/13 02:49:36;;;;;;;18.50;16.65;;;15.30;99.90;;;;;;5054071;28;20041;-49
2023/06/13 02:52:03;;;;;;;18.35;16.55;;;15.30;99.90;;;;;;5048776;28;20084;-51
2023/06/13 02:54:30;;;;;;;23.15;17.67;;;15.30;99.90;;;;;;5034634;28;20037;-51
2023/06/13 02:56:57;;;;;;;17.88;16.05;;;15.20;99.90;;;;;;5050559;28;20124;-49
2023/06/13 02:59:26;;;;;;;17.48;15.80;;;15.10;99.90;;;;;;5063677;28;20044;-52
2023/06/13 03:01:53;;;;;;;19.35;17.33;;;15.10;99.90;;;;;;5053372;28;20102;-49
2023/06/13 03:04:20;;;;;;;17.25;15.45;;;15.10;99.90;;;;;;5054842;28;20044;-50
2023/06/13 03:06:49;;;;;;;19.92;16.65;;;15.10;99.90;;;;;;5053618;28;20068;-47
2023/06/13 03:09:17;;;;;;;17.00;15.18;;;15.00;99.90;;;;;;5061140;28;20082;-51
2023/06/13 03:11:45;;;;;;;19.33;16.70;;;15.00;99.90;;;;;;5053602;28;20037;-49
2023/06/13 03:14:12;;;;;;;18.20;16.38;;;15.00;99.90;;;;;;5053445;28;20091;-50
2023/06/13 03:16:40;;;;;;;18.13;16.42;;;14.90;99.90;;;;;;5053689;28;20044;-50
2023/06/13 03:19:08;;;;;;;23.08;17.27;;;14.90;99.90;;;;;;5053622;28;20394;-51
2023/06/13 03:21:35;;;;;;;18.70;16.65;;;14.90;99.90;;;;;;5053446;28;20037;-53
2023/06/13 03:24:02;;;;;;;19.10;16.42;;;14.80;99.90;;;;;;5053449;28;20091;-48
2023/06/13 03:26:37;;;;;;;18.40;16.40;;;14.90;99.90;;;;;;5053300;28;20124;-52
2023/06/13 03:29:07;;;;;;;17.88;15.93;;;14.80;99.90;;;;;;5053214;28;20044;-52
2023/06/13 03:31:34;;;;;;;16.88;15.13;;;14.80;99.90;;;;;;5052762;28;20127;-54
2023/06/13 03:34:01;;;;;;;18.77;16.08;;;14.80;99.90;;;;;;5054141;28;20041;-48
2023/06/13 03:36:28;;;;;;;19.88;15.75;;;14.70;99.90;;;;;;5052240;28;20449;-49
2023/06/13 03:38:58;;;;;;;18.92;15.10;;;14.60;99.90;;;;;;5053110;28;20041;-51
2023/06/13 03:41:26;;;;;;;17.70;15.85;;;14.70;99.90;;;;;;5052948;28;20052;-52
2023/06/13 03:43:52;;;;;;;16.80;14.95;;;14.60;99.90;;;;;;5052967;28;20372;-47
2023/06/13 03:46:19;;;;;;;16.33;14.70;;;14.60;99.90;;;;;;5052945;28;20150;-52
2023/06/13 03:48:46;;;;;;;16.33;14.75;;;14.60;99.90;;;;;;5053216;28;20071;-51
2023/06/13 03:51:13;;;;;;;16.65;15.05;;;14.60;99.90;;;;;;5053989;28;20033;-49
2023/06/13 03:53:40;;;;;;;16.17;14.38;;;14.50;99.90;;;;;;5052742;28;20040;-52
2023/06/13 03:56:07;;;;;;;16.98;14.32;;;14.50;99.90;;;;;;5036285;28;20494;-48
2023/06/13 03:58:34;;;;;;;16.63;14.93;;;14.50;99.90;;;;;;5052759;28;20101;-52
2023/06/13 04:01:00;;;;;;;15.75;14.15;;;14.50;99.90;;;;;;5052738;28;20418;-51
2023/06/13 04:03:29;;;;;;;15.98;14.48;;;14.40;99.90;;;;;;5054121;28;20037;-50
2023/06/13 04:05:56;;;;;;;16.15;14.55;;;14.50;99.90;;;;;;5052576;28;20496;-51
2023/06/13 04:08:23;;;;;;;18.70;13.90;;;14.50;99.90;;;;;;5036134;28;20049;-49
2023/06/13 04:10:50;;;;;;;15.90;13.95;;;14.50;99.90;;;;;;5053740;28;20082;-49
2023/06/13 04:13:17;;;;;;;16.17;14.07;;;14.40;99.90;;;;;;5054162;28;20384;-49
2023/06/13 04:15:45;;;;;;;15.88;14.13;;;14.40;99.90;;;;;;5053700;28;20041;-50
2023/06/13 04:18:16;;;;;;;15.15;13.48;;;14.50;99.90;;;;;;5052326;28;20442;-52
2023/06/13 04:20:43;;;;;;;15.13;13.13;;;14.50;99.90;;;;;;5053817;28;20044;-50
2023/06/13 04:23:13;;;;;;;14.27;12.68;;;14.50;99.90;;;;;;5052331;28;20037;-51
2023/06/13 04:25:41;;;;;;;13.40;12.00;;;14.50;99.90;;;;;;5052539;28;20426;-50
2023/06/13 04:28:08;;;;;;;16.88;12.30;;;14.50;99.90;;;;;;5052214;28;20045;-47
2023/06/13 04:30:36;;;;;;;15.77;12.30;;;14.60;99.90;;;;;;5052335;28;20064;-54
2023/06/13 04:33:06;;;;;;;12.82;11.55;;;14.60;99.90;;;;;;5051494;28;20045;-53
2023/06/13 04:35:37;;;;;;;13.90;11.02;;;14.80;99.90;;;;;;5053506;28;20049;-49
2023/06/13 04:38:04;;;;;;;13.07;10.85;;;15.00;99.90;;;;;;5053682;28;20488;-47
2023/06/13 04:40:31;;;;;;;11.73;10.52;;;15.10;99.90;;;;;;5053591;28;20063;-46
2023/06/13 04:43:03;;;;;;;12.25;9.20;;;15.30;99.90;;;;;;5053290;28;20041;-48
2023/06/13 04:45:31;;;;;;;10.98;9.68;;;15.40;99.90;;;;;;5053615;28;20107;-54
2023/06/13 04:48:01;;;;;;;15.13;10.00;;;15.60;99.90;;;;;;5053517;28;20388;-54
2023/06/13 04:50:28;;;;;;;14.25;9.35;;;15.70;99.90;;;;;;5053108;28;20033;-53
2023/06/13 04:52:55;;;;;;;10.50;9.07;;;15.90;99.90;;;;;;5053526;28;20033;-51
2023/06/13 04:55:22;;;;;;;11.27;9.35;;;16.00;99.90;;;;;;5053122;28;20116;-51
2023/06/13 04:57:49;;;;;;;11.45;9.25;;;16.10;99.90;;;;;;5053008;28;20144;-53
2023/06/13 05:00:16;;;;;;;12.10;8.32;;;16.20;99.90;;;;;;5053107;28;20041;-52
2023/06/13 05:02:45;;;;;;;10.85;9.05;;;16.40;99.90;;;;;;5053394;28;20112;-53
2023/06/13 05:05:14;;;;;;;9.20;8.30;;;16.50;99.90;;;;;;5053142;28;20044;-49
2023/06/13 05:07:42;;;;;;;10.38;8.73;;;16.60;99.90;;;;;;5053394;28;20450;-49
2023/06/13 05:10:09;;;;;;;13.13;8.30;;;16.70;99.90;;;;;;5053024;28;20472;-51
2023/06/13 05:12:39;;;;;;;10.48;7.97;;;16.80;99.90;;;;;;5052964;28;20445;-53
2023/06/13 05:15:06;;;;;;;12.63;8.85;;;16.80;99.90;;;;;;5053018;28;20118;-51
2023/06/13 05:17:33;;;;;;;13.25;8.60;;;16.90;99.90;;;;;;5052413;28;20025;-48
2023/06/13 05:20:00;;;;;;;13.57;8.60;;;17.00;99.90;;;;;;5050493;28;20476;-48
2023/06/13 05:22:28;;;;;;;14.07;8.65;;;17.10;99.90;;;;;;5052771;28;20041;-48
2023/06/13 05:24:59;;;;;;;11.52;8.43;;;17.20;99.90;;;;;;5053150;28;20141;-48
2023/06/13 05:27:26;;;;;;;11.98;8.70;;;17.20;99.90;;;;;;5053121;28;20480;-53
2023/06/13 05:29:53;;;;;;;15.98;8.32;;;17.20;99.90;;;;;;5052842;28;20048;-48
2023/06/13 05:32:20;;;;;;;11.75;8.77;;;17.30;99.90;;;;;;5052228;28;20511;-52
2023/06/13 05:34:47;;;;;;;10.48;8.90;;;17.40;99.90;;;;;;5053035;28;20040;-50
2023/06/13 05:37:14;;;;;;;9.10;8.18;;;17.50;99.90;;;;;;5052606;28;20407;-52
2023/06/13 05:39:41;;;;;;;12.10;8.93;;;17.60;99.90;;;;;;5052428;28;20041;-53
2023/06/13 05:42:08;;;;;;;11.20;8.63;;;17.60;99.90;;;;;;5052553;28;20115;-53
2023/06/13 05:44:35;;;;;;;11.43;8.60;;;17.70;99.90;;;;;;5052819;28;20037;-53
2023/06/13 05:47:02;;;;;;;12.95;8.88;;;17.80;99.90;;;;;;5051997;28;20033;-50
2023/06/13 05:49:28;;;;;;;13.93;8.65;;;17.90;99.10;;;;;;5052463;28;20036;-52
2023/06/13 05:51:55;;;;;;;11.48;8.75;;;17.90;99.30;;;;;;5051329;28;20043;-54
2023/06/13 05:54:22;;;;;;;11.98;8.90;;;17.90;99.90;;;;;;5052993;28;20033;-54
2023/06/13 05:56:49;;;;;;;11.75;8.50;;;18.00;99.90;;;;;;5053419;28;20043;-49
2023/06/13 05:59:16;;;;;;;11.90;8.80;;;18.00;99.70;;;;;;5055186;28;20033;-52
2023/06/13 06:01:43;;;;;;;12.30;8.45;;;18.10;99.60;;;;;;5055261;28;20041;-49
2023/06/13 06:04:10;;;;;;;12.25;9.13;;;18.20;99.70;;;;;;5055120;28;20037;-50
2023/06/13 06:06:37;;;;;;;11.55;8.98;;;18.20;99.20;;;;;;5055217;28;20187;-54
2023/06/13 06:09:04;;;;;;;16.13;9.45;;;18.30;99.10;;;;;;5055140;28;20052;-50
2023/06/13 06:11:31;;;;;;;12.52;9.73;;;18.30;99.30;;;;;;5055044;28;20060;-53
2023/06/13 06:13:58;;;;;;;12.57;9.50;;;18.20;99.30;;;;;;5055039;28;20033;-50
2023/06/13 06:16:24;;;;;;;13.93;9.30;;;18.20;99.60;;;;;;5056714;28;20043;-54
2023/06/13 06:18:53;;;;;;;12.57;10.38;;;18.10;99.80;;;;;;5056321;28;20041;-50
2023/06/13 06:21:20;;;;;;;12.70;9.70;;;18.00;99.80;;;;;;5056512;28;20399;-48
2023/06/13 06:23:47;;;;;;;14.68;10.32;;;18.00;99.90;;;;;;5055833;28;20545;-50
2023/06/13 06:26:14;;;;;;;16.30;10.23;;;18.00;99.90;;;;;;5055965;28;20049;-52
2023/06/13 06:28:41;;;;;;;14.55;10.55;;;17.90;99.90;;;;;;5056434;28;20120;-52
2023/06/13 06:31:09;;;;;;;16.63;10.98;;;17.80;99.90;;;;;;5056160;28;20360;-49
2023/06/13 06:33:36;;;;;;;13.60;10.40;;;17.70;99.90;;;;;;5056275;28;20037;-52
2023/06/13 06:36:03;;;;;;;14.40;10.32;;;17.70;99.90;;;;;;5056109;28;20541;-50
2023/06/13 06:38:30;;;;;;;16.38;10.95;;;17.70;99.90;;;;;;5055717;28;20461;-50
2023/06/13 06:40:57;;;;;;;18.38;11.63;;;17.60;99.90;;;;;;5056167;28;20111;-50
2023/06/13 06:43:23;;;;;;;18.27;10.95;;;17.70;99.90;;;;;;5055503;28;20407;-49
2023/06/13 06:45:52;;;;;;;19.08;12.00;;;17.70;99.90;;;;;;5054826;28;20426;-52
2023/06/13 06:48:19;;;;;;;19.02;11.70;;;17.70;99.90;;;;;;5056095;28;20103;-52
2023/06/13 06:50:46;;;;;;;15.05;10.65;;;17.70;99.90;;;;;;5055913;28;20037;-52
2023/06/13 06:53:13;;;;;;;17.90;11.73;;;17.70;99.90;;;;;;5055768;28;20033;-49
2023/06/13 06:55:39;;;;;;;21.20;12.25;;;17.70;99.90;;;;;;5055997;28;20098;-54
2023/06/13 06:58:06;;;;;;;19.80;11.50;;;17.80;99.90;;;;;;5054442;28;20103;-53
2023/06/13 07:00:33;;;;;;;18.52;12.10;;;17.80;99.90;;;;;;5055911;28;20040;-53
2023/06/13 07:03:00;;;;;;;16.85;12.25;;;17.80;99.90;;;;;;5055312;28;20037;-53
2023/06/13 07:05:27;;;;;;;18.08;12.45;;;17.70;99.90;;;;;;5055517;28;20040;-52
2023/06/13 07:07:53;;;;;;;16.73;11.85;;;17.80;99.90;;;;;;5054090;28;20037;-50
2023/06/13 07:10:20;;;;;;;16.63;11.85;;;17.80;99.90;;;;;;5054374;28;20037;-49
2023/06/13 07:12:47;;;;;;;15.88;11.55;;;17.90;99.90;;;;;;5055035;28;20128;-47
2023/06/13 07:15:14;;;;;;;19.13;12.02;;;17.90;99.90;;;;;;5055588;28;20060;-49
2023/06/13 07:17:41;;;;;;;16.52;11.95;;;17.90;99.90;;;;;;5055070;28;20439;-51
2023/06/13 07:20:08;;;;;;;15.63;12.13;;;18.00;99.90;;;;;;5053836;28;20063;-52
2023/06/13 07:22:35;;;;;;;19.42;12.10;;;18.00;99.90;;;;;;5054792;28;20099;-50
2023/06/13 07:25:03;;;;;;;17.98;11.65;;;18.00;99.90;;;;;;5055270;28;20550;-51
2023/06/13 07:27:30;;;;;;;15.88;12.13;;;18.10;99.90;;;;;;5055237;28;20041;-52
2023/06/13 07:29:56;;;;;;;19.50;11.35;;;18.20;99.90;;;;;;5054994;28;20110;-51
2023/06/13 07:32:23;;;;;;;19.20;11.68;;;18.20;99.90;;;;;;5054712;28;20037;-49
2023/06/13 07:34:50;;;;;;;16.35;12.20;;;18.30;99.90;;;;;;5054823;28;20043;-51
2023/06/13 07:37:31;;;;;;;22.70;12.93;;;18.40;99.90;;;;;;5055067;28;20033;-48
2023/06/13 07:39:58;;;;;;;16.77;11.68;;;18.50;99.90;;;;;;5054656;28;20043;-50
2023/06/13 07:42:25;;;;;;;17.60;12.20;;;18.50;99.90;;;;;;5055159;28;20045;-47
2023/06/13 07:44:52;;;;;;;18.90;12.63;;;18.60;99.90;;;;;;5054677;28;20729;-49
2023/06/13 07:47:19;;;;;;;17.15;12.32;;;18.60;99.90;;;;;;5054301;28;20069;-47
2023/06/13 07:49:45;;;;;;;18.48;11.85;;;18.60;99.90;;;;;;5054622;28;20052;-48
2023/06/13 07:52:12;;;;;;;20.40;12.15;;;18.60;99.90;;;;;;5054539;28;20420;-49
2023/06/13 07:54:39;;;;;;;20.38;12.57;;;18.70;99.90;;;;;;5054837;28;20495;-47
2023/06/13 07:57:06;;;;;;;22.45;12.70;;;18.70;99.90;;;;;;5054286;28;20071;-51
2023/06/13 07:59:52;;;;;;;19.20;12.13;;;18.80;99.90;;;;;;5054438;28;20364;-50
2023/06/13 08:02:19;;;;;;;19.30;11.73;;;18.90;99.90;;;;;;5054049;28;20049;-49
2023/06/13 08:04:46;;;;;;;22.77;12.35;;;19.00;99.90;;;;;;5054181;28;20056;-47
2023/06/13 08:07:20;;;;;;;25.17;13.63;;;19.10;99.90;;;;;;5054504;28;20049;-49
2023/06/13 08:09:47;;;;;;;18.30;11.90;;;19.10;99.90;;;;;;5054036;28;20049;-45
2023/06/13 08:12:15;;;;;;;19.30;11.60;;;19.20;99.90;;;;;;5054030;28;20375;-51
2023/06/13 08:14:42;;;;;;;21.80;12.07;;;19.30;99.90;;;;;;5053860;28;20124;-51
2023/06/13 08:17:09;;;;;;;18.40;12.13;;;19.40;99.90;;;;;;5053867;28;20037;-47
2023/06/13 08:19:36;;;;;;;18.10;13.57;;;19.50;99.90;;;;;;5054378;28;20098;-51
2023/06/13 08:22:03;;;;;;;22.48;12.75;;;19.50;99.80;;;;;;5053801;28;20056;-48
2023/06/13 08:24:30;;;;;;;22.60;12.50;;;19.60;99.90;;;;;;5054262;28;20041;-46
2023/06/13 08:26:57;;;;;;;18.45;12.43;;;19.60;99.90;;;;;;5053743;28;20106;-50
2023/06/13 08:29:28;;;;;;;20.30;12.10;;;19.60;99.60;;;;;;5053953;28;20107;-47
2023/06/13 08:31:56;;;;;;;17.58;11.57;;;19.70;99.80;;;;;;5054043;28;20041;-49
2023/06/13 08:34:23;;;;;;;24.98;12.07;;;19.80;99.70;;;;;;5052723;28;20033;-53
2023/06/13 08:36:50;;;;;;;18.30;11.93;;;19.90;99.50;;;;;;5053485;28;20044;-46
2023/06/13 08:39:17;;;;;;;30.55;12.85;;;19.90;99.60;;;;;;5053627;28;20128;-50
2023/06/13 08:41:44;;;;;;;21.23;11.65;;;20.00;99.10;;;;;;5054109;28;20115;-46
2023/06/13 08:44:11;;;;;;;20.13;11.88;;;20.00;99.10;;;;;;5053616;28;20045;-44
2023/06/13 08:46:38;;;;;;;18.23;11.63;;;20.00;99.20;;;;;;5054035;28;20048;-44
2023/06/13 08:49:06;;;;;;;21.25;11.15;;;20.10;99.20;;;;;;5053335;28;20045;-45
2023/06/13 08:51:32;;;;;;;17.73;11.00;;;20.30;99.30;;;;;;5052188;28;20442;-48
2023/06/13 08:54:05;;;;;;;25.30;10.98;;;20.30;99.10;;;;;;5053281;28;20051;-50
2023/06/13 08:56:34;;;;;;;;;;;20.40;99.00;;;;;;5053689;28;20060;-48
2023/06/13 08:59:01;;;;;;;17.30;10.48;;;20.50;98.60;;;;;;5053362;28;20007;-51
2023/06/13 09:01:28;;;;;;;19.92;11.13;;;20.50;98.70;;;;;;5053558;28;20476;-52
2023/06/13 09:03:55;;;;;;;19.85;10.52;;;20.60;98.40;;;;;;5053823;28;20200;-51
2023/06/13 09:06:22;;;;;;;14.00;10.50;;;20.70;98.70;;;;;;5053586;28;20045;-51
2023/06/13 09:08:49;;;;;;;16.30;10.40;;;20.80;98.40;;;;;;5052613;28;20052;-50
2023/06/13 09:11:16;;;;;;;17.17;10.07;;;20.90;98.30;;;;;;5053436;28;20472;-51
2023/06/13 09:13:45;;;;;;;18.00;10.85;;;21.00;98.30;;;;;;5053570;28;20127;-48
2023/06/13 09:16:12;;;;;;;16.05;11.77;;;21.10;97.70;;;;;;5053592;28;20502;-49
2023/06/13 09:18:42;;;;;;;18.25;11.73;;;21.10;97.30;;;;;;5053008;28;20037;-50
2023/06/13 09:21:10;;;;;;;18.90;10.95;;;21.10;97.60;;;;;;5051970;28;20049;-54
2023/06/13 09:23:37;;;;;;;17.42;10.20;;;21.20;97.40;;;;;;5053210;28;20037;-50
2023/06/13 09:26:04;;;;;;;18.40;10.93;;;21.30;97.60;;;;;;5053202;28;20421;-49
2023/06/13 09:28:31;;;;;;;14.82;9.20;;;21.30;97.20;;;;;;5053386;28;20033;-48
2023/06/13 09:30:58;;;;;;;15.52;9.80;;;21.30;97.60;;;;;;5053537;28;20112;-48
2023/06/13 09:33:25;;;;;;;18.88;10.55;;;21.50;97.50;;;;;;5054123;28;20060;-47
2023/06/13 09:35:52;;;;;;;14.48;10.50;;;21.60;97.50;;;;;;5056989;28;20409;-52
2023/06/13 09:38:20;;;;;;;14.27;10.40;;;21.70;97.30;;;;;;5057174;28;20384;-50
2023/06/13 09:40:47;;;;;;;14.40;9.77;;;21.80;97.20;;;;;;5057143;28;20048;-51
2023/06/13 09:43:14;;;;;;;20.15;10.25;;;21.90;97.00;;;;;;5057080;28;20033;-47
2023/06/13 09:45:41;;;;;;;16.38;9.60;;;22.00;96.60;;;;;;5056638;28;20119;-52
2023/06/13 09:48:08;;;;;;;14.13;9.75;;;22.10;96.10;;;;;;5057041;28;20049;-46
2023/06/13 09:50:36;;;;;;;12.93;9.82;;;22.20;96.00;;;;;;5055886;28;20044;-48
2023/06/13 09:53:04;;;;;;;18.60;9.27;;;22.20;96.10;;;;;;5056968;28;20041;-54
2023/06/13 09:55:31;;;;;;;12.13;8.55;;;22.30;95.80;;;;;;5056859;28;20384;-48
2023/06/13 09:57:58;;;;;;;12.52;9.10;;;22.30;96.00;;;;;;5056820;28;20056;-46
2023/06/13 10:00:28;;;;;;;13.93;9.40;;;22.40;96.10;;;;;;5056323;28;20033;-51
2023/06/13 10:02:55;;;;;;;13.63;8.18;;;22.60;95.60;;;;;;5056987;28;20422;-51
2023/06/13 10:05:28;;;;;;;10.25;8.85;;;22.60;95.60;;;;;;5056783;28;20068;-47
2023/06/13 10:07:54;;;;;;;14.90;8.32;;;22.70;95.10;;;;;;5056319;28;20044;-47
2023/06/13 10:10:21;;;;;;;18.35;9.02;;;22.80;94.60;;;;;;5056397;28;20467;-50
2023/06/13 10:12:48;;;;;;;14.05;8.90;;;22.80;94.50;;;;;;5056451;28;20033;-48
2023/06/13 10:15:15;;;;;;;12.05;8.27;;;22.80;94.80;;;;;;5055658;28;20079;-51
2023/06/13 10:17:42;;;;;;;16.90;8.68;;;22.80;95.10;;;;;;5056371;28;20044;-51
2023/06/13 10:20:10;;;;;;;11.85;8.40;;;23.00;94.70;;;;;;5056353;28;20075;-50
2023/06/13 10:22:36;;;;;;;13.45;8.45;;;23.10;94.50;;;;;;5056027;28;20076;-55
2023/06/13 10:25:03;;;;;;;13.20;7.80;;;23.20;94.40;;;;;;5055829;28;20053;-51
2023/06/13 10:27:30;;;;;;;17.40;8.02;;;23.30;94.90;;;;;;5055963;28;20533;-46
2023/06/13 10:29:57;;;;;;;12.05;7.40;;;23.40;94.60;;;;;;5055658;28;20480;-52
2023/06/13 10:32:24;;;;;;;16.35;8.02;;;23.50;93.80;;;;;;5055745;28;20506;-49
2023/06/13 10:34:51;;;;;;;12.50;7.13;;;23.60;93.20;;;;;;5055906;28;20041;-48
2023/06/13 10:37:17;;;;;;;11.10;7.65;;;23.60;92.80;;;;;;5054298;28;20396;-51
2023/06/13 10:39:44;;;;;;;11.98;7.60;;;23.70;93.10;;;;;;5055984;28;20494;-53
2023/06/13 10:42:11;;;;;;;11.50;7.03;;;23.80;93.40;;;;;;5055520;28;20044;-49
2023/06/13 10:44:38;;;;;;;9.45;6.72;;;23.90;93.50;;;;;;5055223;28;20131;-54
2023/06/13 10:47:05;;;;;;;12.57;7.03;;;23.90;92.90;;;;;;5055756;28;20075;-53
2023/06/13 10:49:32;;;;;;;15.35;7.78;;;24.00;92.80;;;;;;5055516;28;20194;-53
2023/06/13 10:51:59;;;;;;;10.90;7.25;;;24.10;91.80;;;;;;5055449;28;20041;-51
2023/06/13 10:54:26;;;;;;;12.38;7.15;;;24.10;91.40;;;;;;5055366;28;20068;-47
2023/06/13 10:56:52;;;;;;;10.65;6.65;;;24.20;91.30;;;;;;5055264;28;20044;-53
2023/06/13 10:59:19;;;;;;;12.98;7.22;;;24.30;91.00;;;;;;5055159;28;20053;-50
2023/06/13 11:01:46;;;;;;;14.02;6.28;;;24.30;91.10;;;;;;5055218;28;20502;-53
2023/06/13 11:04:13;;;;;;;11.40;6.88;;;24.40;90.90;;;;;;5055672;28;20079;-51
2023/06/13 11:06:40;;;;;;;13.63;6.50;;;24.50;89.90;;;;;;5055083;28;20049;-49
2023/06/13 11:09:07;;;;;;;11.38;7.72;;;24.60;88.80;;;;;;5055503;28;20049;-54
2023/06/13 11:11:34;;;;;;;9.55;6.80;;;24.60;89.50;;;;;;5055407;28;20045;-48
2023/06/13 11:14:01;;;;;;;14.45;6.82;;;24.60;90.30;;;;;;5054868;28;20124;-52
2023/06/13 11:16:28;;;;;;;12.50;7.00;;;24.60;89.50;;;;;;5055124;28;20044;-48
2023/06/13 11:18:54;;;;;;;10.98;6.60;;;24.60;89.60;;;;;;5055308;28;20060;-54
2023/06/13 11:21:21;;;;;;;17.80;8.82;;;24.70;89.90;;;;;;5055539;28;20098;-51
2023/06/13 11:23:48;;;;;;;9.63;6.45;;;24.80;88.70;;;;;;5054083;28;20077;-47
2023/06/13 11:26:15;;;;;;;17.00;6.60;;;24.90;88.70;;;;;;5055171;28;20132;-51
2023/06/13 11:28:42;;;;;;;13.63;6.90;;;25.00;87.40;;;;;;5054852;28;20048;-52
2023/06/13 11:31:09;;;;;;;15.80;7.07;;;25.00;85.70;;;;;;5053936;28;20048;-52
2023/06/13 11:33:36;;;;;;;13.45;6.43;;;24.90;86.60;;;;;;5055039;28;20044;-52
2023/06/13 11:36:03;;;;;;;11.40;6.70;;;25.00;86.50;;;;;;5054934;28;20041;-55
2023/06/13 11:38:30;;;;;;;12.48;6.88;;;25.00;85.40;;;;;;5054908;28;20037;-50
2023/06/13 11:40:57;;;;;;;12.82;6.93;;;25.00;85.80;;;;;;5054540;28;20052;-51
2023/06/13 11:43:24;;;;;;;9.30;6.60;;;25.00;84.70;;;;;;5054467;28;20127;-52
2023/06/13 11:45:51;;;;;;;12.85;6.72;;;24.90;84.90;;;;;;5054507;28;20037;-52
2023/06/13 11:48:22;;;;;;;11.60;6.40;;;25.00;84.10;;;;;;5054288;28;20041;-53
2023/06/13 11:50:50;;;;;;;10.65;6.63;;;25.10;83.80;;;;;;5054879;28;20045;-49
2023/06/13 11:53:18;;;;;;;13.32;6.47;;;25.10;84.60;;;;;;5054528;28;20348;-51
2023/06/13 11:55:46;;;;;;;14.07;6.10;;;25.10;85.90;;;;;;5053131;28;20053;-53
2023/06/13 11:58:12;;;;;;;10.57;6.43;;;25.30;85.60;;;;;;5054333;28;20053;-50
2023/06/13 12:00:39;;;;;;;10.27;6.60;;;25.30;84.30;;;;;;5053589;28;20128;-51
2023/06/13 12:03:06;;;;;;;11.40;6.22;;;25.30;84.50;;;;;;5054039;28;20095;-49
2023/06/13 12:05:33;;;;;;;14.15;6.95;;;25.30;84.60;;;;;;5054181;28;20492;-51
2023/06/13 12:08:00;;;;;;;10.48;7.35;;;25.30;84.00;;;;;;5053813;28;20052;-52
2023/06/13 12:10:26;;;;;;;12.57;7.75;;;25.40;84.00;;;;;;5054042;28;20041;-48
2023/06/13 12:12:53;;;;;;;13.40;7.50;;;25.40;84.30;;;;;;5053624;28;20069;-47
2023/06/13 12:15:20;;;;;;;13.77;7.50;;;25.40;83.90;;;;;;5054426;28;20044;-49
2023/06/13 12:17:47;;;;;;;10.15;7.47;;;25.40;82.60;;;;;;5053762;28;20094;-50
2023/06/13 12:20:14;;;;;;;12.80;7.40;;;25.50;82.90;;;;;;5053731;28;20489;-53
2023/06/13 12:22:40;;;;;;;10.57;6.80;;;25.40;82.60;;;;;;5052550;28;20491;-49
2023/06/13 12:25:07;;;;;;;15.50;6.47;;;25.30;80.50;;;;;;5053749;28;20064;-50
2023/06/13 12:27:36;;;;;;;15.25;6.72;;;25.20;81.00;;;;;;5054012;28;20056;-49
2023/06/13 12:30:03;;;;;;;14.18;6.68;;;25.30;81.60;;;;;;5053464;28;20079;-53